createdAt,value
2018-05-25T00:00:39.729Z,19.20
2018-05-25T00:03:07.190Z,19.20
2018-05-25T00:05:34.757Z,19.30
2018-05-25T00:08:02.312Z,19.40
2018-05-25T00:10:29.789Z,19.40
2018-05-25T00:12:57.259Z,19.30
2018-05-25T00:15:24.780Z,19.40
2018-05-25T00:17:52.241Z,19.20
2018-05-25T00:20:19.710Z,19.30
2018-05-25T00:22:47.165Z,19.10
2018-05-25T00:25:14.638Z,19.20
2018-05-25T00:27:42.130Z,19.40
2018-05-25T00:30:09.681Z,19.40
2018-05-25T00:32:37.150Z,19.30
2018-05-25T00:35:06.133Z,19.30
2018-05-25T00:37:33.687Z,19.30
2018-05-25T00:40:01.147Z,19.30
2018-05-25T00:42:28.624Z,19.10
2018-05-25T00:44:56.087Z,19.10
2018-05-25T00:47:23.653Z,19.10
2018-05-25T00:49:51.133Z,19.10
2018-05-25T00:52:18.684Z,19.20
2018-05-25T00:54:58.033Z,19.20
2018-05-25T00:57:26.251Z,18.80
2018-05-25T00:59:53.722Z,18.80
2018-05-25T01:02:21.678Z,19.00
2018-05-25T01:04:49.150Z,18.90
2018-05-25T01:07:16.654Z,18.90
2018-05-25T01:09:44.149Z,18.90
2018-05-25T01:12:12.380Z,18.70
2018-05-25T01:14:39.824Z,18.70
2018-05-25T01:17:07.417Z,18.60
2018-05-25T01:19:36.397Z,18.90
2018-05-25T01:22:03.857Z,18.90
2018-05-25T01:24:31.333Z,19.00
2018-05-25T01:26:58.815Z,19.00
2018-05-25T01:29:26.371Z,19.10
2018-05-25T01:31:53.925Z,18.90
2018-05-25T01:34:21.404Z,18.90
2018-05-25T01:36:48.970Z,18.80
2018-05-25T01:39:17.188Z,19.10
2018-05-25T01:41:44.654Z,19.10
2018-05-25T01:44:12.129Z,19.10
2018-05-25T01:46:39.591Z,19.00
2018-05-25T01:49:07.192Z,19.00
2018-05-25T01:51:34.660Z,18.60
2018-05-25T01:54:02.892Z,18.80
2018-05-25T01:56:30.360Z,18.80
2018-05-25T01:58:57.857Z,18.70
2018-05-25T02:01:25.411Z,18.70
2018-05-25T02:03:52.878Z,18.50
2018-05-25T02:06:20.371Z,18.50
2018-05-25T02:08:49.192Z,18.50
2018-05-25T02:11:16.672Z,18.50
2018-05-25T02:13:44.155Z,18.60
2018-05-25T02:16:11.638Z,18.60
2018-05-25T02:18:39.091Z,18.90
2018-05-25T02:21:06.703Z,18.70
2018-05-25T02:23:34.228Z,18.70
2018-05-25T02:26:02.450Z,18.60
2018-05-25T02:28:29.938Z,18.60
2018-05-25T02:30:57.399Z,18.50
2018-05-25T02:33:24.873Z,18.20
2018-05-25T02:35:52.444Z,18.20
2018-05-25T02:38:20.022Z,18.40
2018-05-25T02:40:48.299Z,18.30
2018-05-25T02:43:15.795Z,18.30
2018-05-25T02:45:43.241Z,18.30
2018-05-25T02:48:11.483Z,18.40
2018-05-25T02:50:38.957Z,18.40
2018-05-25T02:53:06.426Z,18.40
2018-05-25T02:55:33.891Z,18.20
2018-05-25T02:58:02.163Z,18.50
2018-05-25T03:00:29.642Z,18.50
2018-05-25T03:02:57.176Z,18.40
2018-05-25T03:05:24.645Z,18.40
2018-05-25T03:07:52.110Z,18.30
2018-05-25T03:10:19.578Z,18.30
2018-05-25T03:12:47.142Z,18.30
2018-05-25T03:15:15.264Z,18.30
2018-05-25T03:17:42.731Z,18.40
2018-05-25T03:20:10.197Z,18.40
2018-05-25T03:22:37.665Z,18.20
2018-05-25T03:25:05.268Z,18.30
2018-05-25T03:27:32.810Z,18.40
2018-05-25T03:30:00.286Z,18.40
2018-05-25T03:32:27.740Z,18.40
2018-05-25T03:34:55.207Z,18.40
2018-05-25T03:37:22.668Z,18.20
2018-05-25T03:39:50.145Z,18.20
2018-05-25T03:42:17.617Z,18.20
2018-05-25T03:44:45.839Z,18.10
2018-05-25T03:47:13.329Z,18.10
2018-05-25T03:49:40.799Z,18.10
2018-05-25T03:52:08.266Z,18.10
2018-05-25T03:54:35.744Z,18.10
2018-05-25T03:57:03.233Z,18.00
2018-05-25T03:59:42.689Z,17.90
2018-05-25T04:02:10.169Z,18.00
2018-05-25T04:04:37.745Z,17.90
2018-05-25T04:07:05.222Z,18.00
2018-05-25T04:09:32.749Z,18.00
2018-05-25T04:12:00.213Z,18.00
2018-05-25T04:14:27.675Z,18.00
2018-05-25T04:16:55.167Z,17.90
2018-05-25T04:19:22.733Z,18.00
2018-05-25T04:21:51.169Z,18.00
2018-05-25T04:24:18.648Z,18.00
2018-05-25T04:26:46.119Z,17.80
2018-05-25T04:29:13.584Z,17.70
2018-05-25T04:31:41.069Z,17.70
2018-05-25T04:34:08.526Z,17.80
2018-05-25T04:36:36.088Z,17.80
2018-05-25T04:39:03.598Z,18.00
2018-05-25T04:41:31.107Z,18.00
2018-05-25T04:43:58.681Z,18.10
2018-05-25T04:46:26.205Z,17.90
2018-05-25T04:48:53.672Z,18.00
2018-05-25T04:51:21.134Z,18.00
2018-05-25T04:53:48.596Z,18.10
2018-05-25T04:56:16.059Z,18.00
2018-05-25T04:58:43.564Z,18.10
2018-05-25T05:01:11.824Z,18.10
2018-05-25T05:03:39.401Z,18.10
2018-05-25T05:06:08.489Z,18.20
2018-05-25T05:08:35.966Z,18.20
2018-05-25T05:11:03.520Z,18.20
2018-05-25T05:13:31.083Z,18.20
2018-05-25T05:15:58.533Z,18.10
2018-05-25T05:18:26.095Z,18.20
2018-05-25T05:20:53.682Z,18.20
2018-05-25T05:23:21.155Z,18.20
2018-05-25T05:25:49.401Z,18.00
2018-05-25T05:28:17.450Z,18.00
2018-05-25T05:30:44.929Z,18.00
2018-05-25T05:33:12.416Z,17.90
2018-05-25T05:35:39.884Z,18.00
2018-05-25T05:38:07.360Z,18.00
2018-05-25T05:40:35.624Z,18.00
2018-05-25T05:43:03.092Z,18.00
2018-05-25T05:45:31.334Z,18.10
2018-05-25T05:47:58.818Z,18.10
2018-05-25T05:50:26.386Z,18.10
2018-05-25T05:52:53.840Z,18.10
2018-05-25T05:55:21.402Z,18.20
2018-05-25T05:57:48.896Z,18.20
2018-05-25T06:00:17.129Z,18.30
2018-05-25T06:02:44.617Z,18.30
2018-05-25T06:05:12.077Z,18.30
2018-05-25T06:07:39.554Z,18.30
2018-05-25T06:10:07.037Z,18.40
2018-05-25T06:12:35.286Z,18.40
2018-05-25T06:15:02.786Z,18.30
2018-05-25T06:17:31.009Z,18.40
2018-05-25T06:19:58.592Z,18.40
2018-05-25T06:22:26.060Z,18.30
2018-05-25T06:24:53.542Z,18.40
2018-05-25T06:27:21.013Z,18.50
2018-05-25T06:29:49.274Z,18.60
2018-05-25T06:32:16.824Z,18.60
2018-05-25T06:34:44.671Z,18.50
2018-05-25T06:37:12.128Z,18.60
2018-05-25T06:39:39.627Z,18.70
2018-05-25T06:42:07.091Z,18.90
2018-05-25T06:44:35.362Z,19.20
2018-05-25T06:47:02.875Z,19.20
2018-05-25T06:49:30.343Z,19.20
2018-05-25T06:51:57.812Z,19.30
2018-05-25T06:54:25.316Z,19.30
2018-05-25T06:56:52.871Z,19.30
2018-05-25T06:59:20.373Z,19.40
2018-05-25T07:01:48.607Z,19.50
2018-05-25T07:04:16.079Z,19.50
2018-05-25T07:06:43.554Z,19.60
2018-05-25T07:09:11.063Z,19.60
2018-05-25T07:11:38.582Z,19.40
2018-05-25T07:14:06.046Z,19.30
2018-05-25T07:16:33.596Z,19.10
2018-05-25T07:19:01.078Z,19.00
2018-05-25T07:21:29.332Z,18.80
2018-05-25T07:23:56.804Z,18.80
2018-05-25T07:26:24.363Z,18.80
2018-05-25T07:28:51.826Z,19.00
2018-05-25T07:31:20.817Z,19.20
2018-05-25T07:33:48.309Z,19.20
2018-05-25T07:36:16.554Z,19.30
2018-05-25T07:38:44.028Z,19.30
2018-05-25T07:41:11.513Z,19.30
2018-05-25T07:43:39.754Z,19.40
2018-05-25T07:46:07.238Z,19.40
2018-05-25T07:48:34.711Z,19.50
2018-05-25T07:51:02.987Z,19.60
2018-05-25T07:53:30.542Z,19.60
2018-05-25T07:55:58.780Z,19.70
2018-05-25T07:58:26.260Z,19.70
2018-05-25T08:00:53.728Z,19.80
2018-05-25T08:03:21.314Z,19.80
2018-05-25T08:05:49.540Z,20.10
2018-05-25T08:08:17.017Z,20.00
2018-05-25T08:10:44.513Z,20.10
2018-05-25T08:13:12.081Z,20.30
2018-05-25T08:15:39.644Z,20.40
2018-05-25T08:18:07.117Z,20.40
2018-05-25T08:20:34.610Z,20.50
2018-05-25T08:23:02.086Z,20.70
2018-05-25T08:25:29.545Z,20.80
2018-05-25T08:27:57.022Z,20.90
2018-05-25T08:30:24.492Z,20.90
2018-05-25T08:32:52.074Z,21.00
2018-05-25T08:35:19.552Z,21.00
2018-05-25T08:37:47.037Z,20.90
2018-05-25T08:40:15.279Z,21.30
2018-05-25T08:42:42.843Z,21.30
2018-05-25T08:45:10.311Z,21.50
2018-05-25T08:47:37.787Z,21.50
2018-05-25T08:50:05.349Z,21.50
2018-05-25T08:52:32.808Z,21.70
2018-05-25T08:55:00.363Z,21.80
2018-05-25T08:57:27.838Z,21.90
2018-05-25T08:59:56.064Z,21.90
2018-05-25T09:02:23.557Z,22.00
2018-05-25T09:04:51.025Z,22.00
2018-05-25T09:07:18.514Z,22.10
2018-05-25T09:09:46.765Z,22.30
2018-05-25T09:12:14.334Z,22.30
2018-05-25T09:14:41.804Z,22.10
2018-05-25T09:17:09.371Z,21.90
2018-05-25T09:19:36.942Z,21.90
2018-05-25T09:22:05.931Z,22.10
2018-05-25T09:24:33.491Z,22.10
2018-05-25T09:27:00.959Z,22.10
2018-05-25T09:29:28.524Z,22.00
2018-05-25T09:31:56.011Z,21.80
2018-05-25T09:34:24.256Z,21.90
2018-05-25T09:36:51.723Z,21.90
2018-05-25T09:39:19.193Z,22.10
2018-05-25T09:41:47.470Z,22.50
2018-05-25T09:44:14.927Z,22.40
2018-05-25T09:46:42.385Z,22.80
2018-05-25T09:49:09.881Z,22.80
2018-05-25T09:51:38.133Z,22.70
2018-05-25T09:54:05.958Z,22.60
2018-05-25T09:56:33.419Z,22.90
2018-05-25T09:59:00.899Z,23.10
2018-05-25T10:01:28.375Z,23.30
2018-05-25T10:03:55.840Z,23.20
2018-05-25T10:06:23.415Z,23.40
2018-05-25T10:08:50.879Z,23.20
2018-05-25T10:11:19.209Z,23.40
2018-05-25T10:13:46.726Z,23.40
2018-05-25T10:16:14.209Z,23.30
2018-05-25T10:18:42.458Z,23.30
2018-05-25T10:21:09.933Z,23.30
2018-05-25T10:23:37.409Z,23.30
2018-05-25T10:26:04.876Z,23.40
2018-05-25T10:28:33.110Z,23.50
2018-05-25T10:31:00.592Z,23.50
2018-05-25T10:33:28.065Z,23.20
2018-05-25T10:35:56.303Z,23.00
2018-05-25T10:38:23.771Z,23.00
2018-05-25T10:40:51.265Z,22.90
2018-05-25T10:43:18.849Z,22.80
2018-05-25T10:45:47.081Z,22.80
2018-05-25T10:48:14.559Z,22.80
2018-05-25T10:50:42.024Z,23.10
2018-05-25T10:53:09.496Z,23.30
2018-05-25T10:55:36.961Z,23.30
2018-05-25T10:58:04.535Z,23.50
2018-05-25T11:00:32.802Z,23.60
2018-05-25T11:03:00.365Z,23.50
2018-05-25T11:05:29.573Z,23.50
2018-05-25T11:07:57.038Z,23.40
2018-05-25T11:10:24.497Z,23.30
2018-05-25T11:12:52.731Z,23.20
2018-05-25T11:15:20.201Z,23.20
2018-05-25T11:17:47.665Z,23.10
2018-05-25T11:20:15.170Z,23.10
2018-05-25T11:22:42.722Z,22.90
2018-05-25T11:25:10.198Z,22.90
2018-05-25T11:27:38.472Z,22.80
2018-05-25T11:30:06.741Z,22.80
2018-05-25T11:32:34.210Z,22.80
2018-05-25T11:35:02.499Z,23.50
2018-05-25T11:37:30.727Z,23.60
2018-05-25T11:39:58.191Z,23.60
2018-05-25T11:42:25.702Z,23.70
2018-05-25T11:44:53.167Z,23.80
2018-05-25T11:47:21.411Z,23.80
2018-05-25T11:49:48.906Z,23.80
2018-05-25T11:52:17.163Z,24.00
2018-05-25T11:54:44.753Z,24.00
2018-05-25T11:57:13.018Z,23.60
2018-05-25T11:59:40.501Z,23.50
2018-05-25T12:02:07.973Z,23.60
2018-05-25T12:04:36.225Z,23.40
2018-05-25T12:07:03.678Z,23.40
2018-05-25T12:09:31.245Z,23.50
2018-05-25T12:12:00.021Z,23.40
2018-05-25T12:14:27.505Z,23.50
2018-05-25T12:16:54.972Z,23.60
2018-05-25T12:19:23.187Z,24.00
2018-05-25T12:21:50.680Z,23.90
2018-05-25T12:24:18.127Z,24.20
2018-05-25T12:26:45.606Z,24.20
2018-05-25T12:29:13.074Z,24.20
2018-05-25T12:31:40.560Z,24.20
2018-05-25T12:34:08.128Z,24.10
2018-05-25T12:36:36.338Z,24.50
2018-05-25T12:39:04.570Z,24.80
2018-05-25T12:41:32.042Z,24.80
2018-05-25T12:43:59.605Z,24.90
2018-05-25T12:46:27.067Z,25.00
2018-05-25T12:48:54.551Z,25.10
2018-05-25T12:51:22.021Z,25.10
2018-05-25T12:53:50.261Z,24.80
2018-05-25T12:56:17.721Z,24.70
2018-05-25T12:58:45.180Z,24.60
2018-05-25T13:01:12.644Z,24.50
2018-05-25T13:03:40.113Z,24.50
2018-05-25T13:06:07.568Z,24.60
2018-05-25T13:08:35.050Z,24.50
2018-05-25T13:11:02.503Z,24.40
2018-05-25T13:13:30.078Z,24.60
2018-05-25T13:15:58.357Z,24.80
2018-05-25T13:18:26.706Z,24.80
2018-05-25T13:20:54.160Z,24.80
2018-05-25T13:23:21.630Z,24.90
2018-05-25T13:25:49.098Z,25.00
2018-05-25T13:28:16.583Z,25.10
2018-05-25T13:30:44.131Z,25.00
2018-05-25T13:33:11.624Z,25.00
2018-05-25T13:35:39.182Z,25.10
2018-05-25T13:38:07.429Z,25.20
2018-05-25T13:40:34.893Z,25.20
2018-05-25T13:43:02.347Z,25.50
2018-05-25T13:45:29.819Z,25.70
2018-05-25T13:47:57.288Z,25.90
2018-05-25T13:50:24.865Z,25.80
2018-05-25T13:52:52.320Z,25.70
2018-05-25T13:55:19.788Z,25.80
2018-05-25T13:57:47.353Z,25.80
2018-05-25T14:00:14.815Z,25.90
2018-05-25T14:02:42.388Z,26.00
2018-05-25T14:05:11.363Z,26.00
2018-05-25T14:07:38.841Z,26.00
2018-05-25T14:10:06.403Z,26.20
2018-05-25T14:12:33.983Z,26.20
2018-05-25T14:15:01.439Z,26.20
2018-05-25T14:17:30.424Z,26.00
2018-05-25T14:19:57.897Z,25.90
2018-05-25T14:22:25.447Z,26.10
2018-05-25T14:24:53.732Z,26.20
2018-05-25T14:27:21.239Z,26.40
2018-05-25T14:29:49.459Z,26.30
2018-05-25T14:32:16.934Z,26.30
2018-05-25T14:34:44.423Z,26.10
2018-05-25T14:37:11.888Z,26.30
2018-05-25T14:39:39.335Z,26.20
2018-05-25T14:42:07.604Z,26.60
2018-05-25T14:44:35.181Z,26.60
2018-05-25T14:47:03.430Z,26.50
2018-05-25T14:49:30.894Z,26.50
2018-05-25T14:51:58.368Z,26.70
2018-05-25T14:54:25.824Z,26.90
2018-05-25T14:56:53.305Z,26.80
2018-05-25T14:59:22.359Z,26.20
2018-05-25T15:01:49.836Z,26.30
2018-05-25T15:04:17.322Z,26.70
2018-05-25T15:06:44.936Z,26.70
2018-05-25T15:09:13.868Z,26.60
2018-05-25T15:11:41.331Z,26.60
2018-05-25T15:14:08.810Z,26.60
2018-05-25T15:16:36.302Z,26.70
2018-05-25T15:19:04.542Z,26.80
2018-05-25T15:21:32.034Z,26.80
2018-05-25T15:23:59.576Z,26.60
2018-05-25T15:26:27.098Z,26.80
2018-05-25T15:28:54.559Z,27.00
2018-05-25T15:31:22.438Z,26.60
2018-05-25T15:33:51.043Z,27.10
2018-05-25T15:36:18.536Z,27.10
2018-05-25T15:38:46.083Z,27.00
2018-05-25T15:41:13.553Z,27.10
2018-05-25T15:43:41.024Z,27.10
2018-05-25T15:46:09.251Z,27.00
2018-05-25T15:48:36.725Z,27.00
2018-05-25T15:51:04.212Z,27.20
2018-05-25T15:53:31.690Z,27.40
2018-05-25T15:56:00.682Z,27.30
2018-05-25T15:58:28.253Z,27.30
2018-05-25T16:00:56.619Z,27.00
2018-05-25T16:03:24.099Z,27.30
2018-05-25T16:05:51.565Z,25.70
2018-05-25T16:08:19.139Z,26.30
2018-05-25T16:10:46.611Z,26.40
2018-05-25T16:13:14.837Z,26.00
2018-05-25T16:15:42.314Z,26.00
2018-05-25T16:18:09.773Z,26.50
2018-05-25T16:20:37.337Z,26.20
2018-05-25T16:23:04.820Z,26.10
2018-05-25T16:25:32.281Z,26.80
2018-05-25T16:28:00.513Z,27.40
2018-05-25T16:30:28.033Z,27.40
2018-05-25T16:32:55.513Z,27.10
2018-05-25T16:35:23.765Z,26.60
2018-05-25T16:37:51.896Z,26.60
2018-05-25T16:40:19.360Z,26.10
2018-05-25T16:42:46.859Z,26.10
2018-05-25T16:45:14.330Z,26.20
2018-05-25T16:47:42.565Z,25.70
2018-05-25T16:50:10.097Z,25.70
2018-05-25T16:52:37.490Z,25.90
2018-05-25T16:55:04.958Z,26.20
2018-05-25T16:57:32.447Z,26.50
2018-05-25T16:59:59.921Z,27.10
2018-05-25T17:02:27.490Z,27.20
2018-05-25T17:04:54.955Z,27.20
2018-05-25T17:07:22.429Z,26.80
2018-05-25T17:09:50.671Z,27.10
2018-05-25T17:12:18.140Z,27.10
2018-05-25T17:14:45.708Z,27.30
2018-05-25T17:17:13.179Z,27.20
2018-05-25T17:19:40.738Z,27.30
2018-05-25T17:22:09.024Z,27.00
2018-05-25T17:24:36.496Z,27.00
2018-05-25T17:27:03.967Z,27.10
2018-05-25T17:29:32.197Z,27.10
2018-05-25T17:31:59.668Z,27.00
2018-05-25T17:34:27.137Z,27.40
2018-05-25T17:36:54.610Z,27.40
2018-05-25T17:39:22.859Z,27.40
2018-05-25T17:41:50.337Z,27.40
2018-05-25T17:44:17.833Z,27.20
2018-05-25T17:46:45.296Z,27.30
2018-05-25T17:49:13.113Z,27.30
2018-05-25T17:51:40.590Z,27.60
2018-05-25T17:54:08.055Z,26.90
2018-05-25T17:56:35.549Z,27.10
2018-05-25T17:59:03.817Z,27.50
2018-05-25T18:01:32.797Z,27.60
2018-05-25T18:04:00.269Z,27.60
2018-05-25T18:06:27.789Z,27.00
2018-05-25T18:08:55.273Z,27.40
2018-05-25T18:11:22.743Z,27.60
2018-05-25T18:13:50.195Z,27.60
2018-05-25T18:16:17.738Z,27.70
2018-05-25T18:18:45.315Z,27.80
2018-05-25T18:21:12.824Z,27.70
2018-05-25T18:23:41.790Z,27.10
2018-05-25T18:26:09.274Z,27.10
2018-05-25T18:28:36.745Z,27.40
2018-05-25T18:31:05.712Z,27.50
2018-05-25T18:33:33.183Z,27.50
2018-05-25T18:36:00.665Z,27.50
2018-05-25T18:38:29.644Z,27.60
2018-05-25T18:40:57.208Z,27.60
2018-05-25T18:43:24.793Z,27.70
2018-05-25T18:45:52.256Z,27.60
2018-05-25T18:48:19.716Z,27.60
2018-05-25T18:50:47.185Z,27.20
2018-05-25T18:53:14.671Z,26.60
2018-05-25T18:55:42.887Z,25.80
2018-05-25T18:58:10.369Z,25.80
2018-05-25T19:00:38.227Z,26.00
2018-05-25T19:03:05.689Z,25.20
2018-05-25T19:05:33.183Z,25.30
2018-05-25T19:08:00.707Z,25.30
2018-05-25T19:10:28.162Z,25.10
2018-05-25T19:12:55.669Z,25.60
2018-05-25T19:15:23.225Z,25.00
2018-05-25T19:17:51.496Z,25.30
2018-05-25T19:20:19.055Z,25.30
2018-05-25T19:22:46.525Z,25.70
2018-05-25T19:25:14.775Z,25.50
2018-05-25T19:27:42.230Z,25.40
2018-05-25T19:30:09.735Z,25.00
2018-05-25T19:32:37.197Z,25.50
2018-05-25T19:35:04.660Z,25.80
2018-05-25T19:37:33.645Z,25.60
2018-05-25T19:40:01.262Z,25.60
2018-05-25T19:42:28.789Z,25.70
2018-05-25T19:44:57.891Z,25.90
2018-05-25T19:47:25.354Z,25.90
2018-05-25T19:49:52.811Z,25.60
2018-05-25T19:52:21.051Z,25.70
2018-05-25T19:54:48.546Z,25.60
2018-05-25T19:57:16.129Z,25.30
2018-05-25T19:59:43.588Z,25.80
2018-05-25T20:02:11.830Z,25.60
2018-05-25T20:04:39.301Z,25.60
2018-05-25T20:07:06.752Z,24.60
2018-05-25T20:09:34.212Z,24.80
2018-05-25T20:12:01.680Z,24.80
2018-05-25T20:14:29.141Z,25.00
2018-05-25T20:16:57.720Z,25.20
2018-05-25T20:19:25.246Z,25.20
2018-05-25T20:21:53.466Z,24.80
2018-05-25T20:24:20.936Z,24.80
2018-05-25T20:26:48.407Z,24.50
2018-05-25T20:29:15.885Z,24.40
2018-05-25T20:31:43.392Z,24.30
2018-05-25T20:34:10.865Z,24.60
2018-05-25T20:36:38.373Z,24.40
2018-05-25T20:39:06.655Z,24.10
2018-05-25T20:41:34.124Z,24.10
2018-05-25T20:44:03.105Z,23.90
2018-05-25T20:46:30.674Z,23.80
2018-05-25T20:48:58.191Z,23.70
2018-05-25T20:51:25.690Z,23.90
2018-05-25T20:53:53.184Z,24.00
2018-05-25T20:56:21.450Z,24.40
2018-05-25T20:58:48.934Z,24.40
2018-05-25T21:01:17.165Z,24.30
2018-05-25T21:03:44.623Z,24.30
2018-05-25T21:06:12.140Z,24.30
2018-05-25T21:08:40.360Z,25.10
2018-05-25T21:11:07.913Z,25.10
2018-05-25T21:13:35.407Z,24.80
2018-05-25T21:16:02.868Z,24.30
2018-05-25T21:18:30.332Z,24.10
2018-05-25T21:20:57.798Z,24.60
2018-05-25T21:23:27.135Z,24.80
2018-05-25T21:25:55.348Z,24.60
2018-05-25T21:28:22.834Z,24.50
2018-05-25T21:30:50.338Z,24.90
2018-05-25T21:33:18.567Z,25.40
2018-05-25T21:35:46.027Z,25.40
2018-05-25T21:38:13.505Z,24.90
2018-05-25T21:40:41.082Z,24.80
2018-05-25T21:43:08.541Z,24.80
2018-05-25T21:45:36.102Z,24.50
2018-05-25T21:48:03.674Z,24.70
2018-05-25T21:50:31.966Z,25.20
2018-05-25T21:53:00.186Z,25.30
2018-05-25T21:55:27.645Z,25.30
2018-05-25T21:57:55.111Z,24.20
2018-05-25T22:00:22.578Z,24.50
2018-05-25T22:02:50.071Z,24.20
2018-05-25T22:05:17.541Z,24.20
2018-05-25T22:07:45.814Z,24.20
2018-05-25T22:10:13.272Z,24.10
2018-05-25T22:12:40.736Z,24.00
2018-05-25T22:15:08.312Z,23.70
2018-05-25T22:17:35.765Z,23.80
2018-05-25T22:20:03.250Z,23.80
2018-05-25T22:22:30.712Z,23.60
2018-05-25T22:24:58.169Z,24.20
2018-05-25T22:27:27.860Z,24.20
2018-05-25T22:29:55.821Z,24.20
2018-05-25T22:32:23.333Z,24.20
2018-05-25T22:34:51.611Z,23.70
2018-05-25T22:37:19.831Z,23.70
2018-05-25T22:39:47.295Z,23.70
2018-05-25T22:42:26.844Z,23.10
2018-05-25T22:45:06.302Z,22.90
2018-05-25T22:47:45.780Z,23.40
2018-05-25T22:50:25.470Z,23.40
2018-05-25T22:52:58.038Z,23.00
2018-05-25T22:55:26.193Z,23.50
2018-05-25T22:57:53.668Z,23.50
2018-05-25T23:00:21.144Z,23.40
2018-05-25T23:02:48.613Z,23.30
2018-05-25T23:05:16.069Z,23.10
2018-05-25T23:07:43.640Z,23.20
2018-05-25T23:10:11.217Z,23.30
2018-05-25T23:12:38.685Z,23.20
2018-05-25T23:15:06.939Z,23.20
2018-05-25T23:17:34.448Z,23.20
2018-05-25T23:20:03.422Z,22.60
2018-05-25T23:22:31.676Z,23.00
2018-05-25T23:24:59.148Z,22.90
2018-05-25T23:27:26.732Z,22.60
2018-05-25T23:29:54.985Z,22.50
2018-05-25T23:32:22.451Z,22.40
2018-05-25T23:34:50.039Z,22.60
2018-05-25T23:37:17.533Z,22.40
2018-05-25T23:39:45.016Z,22.60
2018-05-25T23:42:12.473Z,22.70
2018-05-25T23:44:39.980Z,22.60
2018-05-25T23:47:08.973Z,22.80
2018-05-25T23:49:36.443Z,22.80
2018-05-25T23:52:03.909Z,22.80
2018-05-25T23:54:32.148Z,22.70
2018-05-25T23:56:59.592Z,22.60
2018-05-25T23:59:27.063Z,22.50
